sensor_id;sensor_type;location;lat;lon;timestamp;P1;durP1;ratioP1;P2;durP2;ratioP2
56297;SDS011;42208;6.376;-10.782;2023-07-20T00:00:55;21.70;;;7.00;;
56297;SDS011;42208;6.376;-10.782;2023-07-20T00:03:24;24.90;;;11.30;;
56297;SDS011;42208;6.376;-10.782;2023-07-20T00:05:52;20.65;;;7.20;;
56297;SDS011;42208;6.376;-10.782;2023-07-20T00:08:20;16.17;;;6.40;;
56297;SDS011;42208;6.376;-10.782;2023-07-20T00:10:49;19.88;;;8.35;;
56297;SDS011;42208;6.376;-10.782;2023-07-20T00:13:17;19.52;;;7.28;;
56297;SDS011;42208;6.376;-10.782;2023-07-20T00:15:46;17.23;;;6.13;;
56297;SDS011;42208;6.376;-10.782;2023-07-20T00:18:14;25.67;;;9.80;;
56297;SDS011;42208;6.376;-10.782;2023-07-20T00:20:43;23.77;;;7.68;;
56297;SDS011;42208;6.376;-10.782;2023-07-20T00:23:11;18.17;;;6.45;;
56297;SDS011;42208;6.376;-10.782;2023-07-20T00:25:40;21.13;;;7.68;;
56297;SDS011;42208;6.376;-10.782;2023-07-20T00:28:08;24.38;;;12.52;;
56297;SDS011;42208;6.376;-10.782;2023-07-20T00:30:37;16.55;;;6.40;;
56297;SDS011;42208;6.376;-10.782;2023-07-20T00:33:10;22.95;;;10.70;;
56297;SDS011;42208;6.376;-10.782;2023-07-20T00:35:39;22.55;;;7.60;;
56297;SDS011;42208;6.376;-10.782;2023-07-20T00:38:07;53.70;;;21.70;;
56297;SDS011;42208;6.376;-10.782;2023-07-20T00:40:39;38.22;;;15.63;;
56297;SDS011;42208;6.376;-10.782;2023-07-20T00:43:08;26.75;;;11.00;;
56297;SDS011;42208;6.376;-10.782;2023-07-20T00:45:37;22.25;;;7.15;;
56297;SDS011;42208;6.376;-10.782;2023-07-20T00:48:06;25.30;;;7.72;;
56297;SDS011;42208;6.376;-10.782;2023-07-20T00:50:36;30.42;;;9.48;;
56297;SDS011;42208;6.376;-10.782;2023-07-20T00:53:04;23.67;;;9.60;;
56297;SDS011;42208;6.376;-10.782;2023-07-20T00:55:33;23.55;;;8.00;;
56297;SDS011;42208;6.376;-10.782;2023-07-20T00:58:02;28.85;;;7.75;;
56297;SDS011;42208;6.376;-10.782;2023-07-20T01:00:31;22.30;;;5.75;;
56297;SDS011;42208;6.376;-10.782;2023-07-20T01:02:59;12.68;;;5.30;;
56297;SDS011;42208;6.376;-10.782;2023-07-20T01:05:33;17.83;;;5.38;;
56297;SDS011;42208;6.376;-10.782;2023-07-20T01:08:24;19.42;;;5.95;;
56297;SDS011;42208;6.376;-10.782;2023-07-20T01:11:09;18.95;;;5.40;;
56297;SDS011;42208;6.376;-10.782;2023-07-20T01:13:43;22.33;;;6.07;;
56297;SDS011;42208;6.376;-10.782;2023-07-20T01:16:12;18.30;;;4.75;;
56297;SDS011;42208;6.376;-10.782;2023-07-20T01:18:41;15.43;;;5.78;;
56297;SDS011;42208;6.376;-10.782;2023-07-20T01:21:11;14.40;;;5.13;;
56297;SDS011;42208;6.376;-10.782;2023-07-20T01:29:42;21.13;;;6.18;;
56297;SDS011;42208;6.376;-10.782;2023-07-20T01:32:30;18.42;;;5.85;;
56297;SDS011;42208;6.376;-10.782;2023-07-20T01:35:00;23.08;;;6.55;;
56297;SDS011;42208;6.376;-10.782;2023-07-20T01:37:30;17.35;;;5.72;;
56297;SDS011;42208;6.376;-10.782;2023-07-20T01:39:59;16.38;;;6.03;;
56297;SDS011;42208;6.376;-10.782;2023-07-20T01:42:28;15.75;;;5.72;;
56297;SDS011;42208;6.376;-10.782;2023-07-20T01:44:57;18.33;;;5.95;;
56297;SDS011;42208;6.376;-10.782;2023-07-20T01:47:26;16.67;;;5.38;;
56297;SDS011;42208;6.376;-10.782;2023-07-20T01:49:54;16.42;;;5.65;;
56297;SDS011;42208;6.376;-10.782;2023-07-20T01:52:22;23.30;;;6.90;;
56297;SDS011;42208;6.376;-10.782;2023-07-20T01:54:51;18.60;;;6.38;;
56297;SDS011;42208;6.376;-10.782;2023-07-20T01:57:19;13.60;;;5.07;;
56297;SDS011;42208;6.376;-10.782;2023-07-20T01:59:47;11.10;;;4.75;;
56297;SDS011;42208;6.376;-10.782;2023-07-20T02:02:16;14.63;;;4.82;;
56297;SDS011;42208;6.376;-10.782;2023-07-20T02:04:45;12.85;;;4.47;;
56297;SDS011;42208;6.376;-10.782;2023-07-20T02:07:13;8.77;;;3.42;;
56297;SDS011;42208;6.376;-10.782;2023-07-20T02:09:42;8.93;;;3.90;;
56297;SDS011;42208;6.376;-10.782;2023-07-20T02:12:11;8.80;;;3.08;;
56297;SDS011;42208;6.376;-10.782;2023-07-20T02:14:39;10.85;;;3.55;;
56297;SDS011;42208;6.376;-10.782;2023-07-20T02:17:08;11.95;;;3.72;;
56297;SDS011;42208;6.376;-10.782;2023-07-20T02:19:37;16.98;;;3.55;;
56297;SDS011;42208;6.376;-10.782;2023-07-20T02:22:05;10.65;;;3.63;;
56297;SDS011;42208;6.376;-10.782;2023-07-20T02:24:34;14.55;;;4.15;;
56297;SDS011;42208;6.376;-10.782;2023-07-20T02:27:02;11.15;;;3.88;;
56297;SDS011;42208;6.376;-10.782;2023-07-20T02:29:31;10.90;;;3.78;;
56297;SDS011;42208;6.376;-10.782;2023-07-20T02:31:59;16.40;;;4.28;;
56297;SDS011;42208;6.376;-10.782;2023-07-20T02:34:28;9.45;;;4.05;;
56297;SDS011;42208;6.376;-10.782;2023-07-20T02:36:57;15.93;;;4.40;;
56297;SDS011;42208;6.376;-10.782;2023-07-20T02:39:25;12.38;;;4.55;;
56297;SDS011;42208;6.376;-10.782;2023-07-20T02:41:55;13.25;;;4.82;;
56297;SDS011;42208;6.376;-10.782;2023-07-20T02:44:24;12.48;;;4.85;;
56297;SDS011;42208;6.376;-10.782;2023-07-20T02:46:52;16.27;;;5.43;;
56297;SDS011;42208;6.376;-10.782;2023-07-20T02:49:21;15.52;;;5.53;;
56297;SDS011;42208;6.376;-10.782;2023-07-20T02:51:49;13.45;;;5.13;;
56297;SDS011;42208;6.376;-10.782;2023-07-20T02:54:18;12.88;;;5.35;;
56297;SDS011;42208;6.376;-10.782;2023-07-20T02:56:46;10.13;;;5.28;;
56297;SDS011;42208;6.376;-10.782;2023-07-20T02:59:15;21.85;;;6.25;;
56297;SDS011;42208;6.376;-10.782;2023-07-20T03:01:43;17.15;;;5.95;;
56297;SDS011;42208;6.376;-10.782;2023-07-20T03:04:12;14.98;;;5.45;;
56297;SDS011;42208;6.376;-10.782;2023-07-20T03:06:41;14.23;;;4.68;;
56297;SDS011;42208;6.376;-10.782;2023-07-20T03:09:09;13.70;;;5.20;;
56297;SDS011;42208;6.376;-10.782;2023-07-20T03:11:38;21.83;;;5.57;;
56297;SDS011;42208;6.376;-10.782;2023-07-20T03:14:06;21.45;;;5.43;;
56297;SDS011;42208;6.376;-10.782;2023-07-20T03:16:35;13.05;;;4.68;;
56297;SDS011;42208;6.376;-10.782;2023-07-20T03:19:04;19.20;;;5.95;;
56297;SDS011;42208;6.376;-10.782;2023-07-20T03:21:32;22.42;;;6.22;;
56297;SDS011;42208;6.376;-10.782;2023-07-20T03:24:00;18.95;;;5.88;;
56297;SDS011;42208;6.376;-10.782;2023-07-20T03:26:29;19.98;;;6.07;;
56297;SDS011;42208;6.376;-10.782;2023-07-20T03:28:58;19.58;;;6.50;;
56297;SDS011;42208;6.376;-10.782;2023-07-20T03:31:27;18.83;;;5.65;;
56297;SDS011;42208;6.376;-10.782;2023-07-20T03:33:56;12.13;;;4.82;;
56297;SDS011;42208;6.376;-10.782;2023-07-20T03:36:25;17.10;;;4.78;;
56297;SDS011;42208;6.376;-10.782;2023-07-20T03:38:54;17.05;;;4.60;;
56297;SDS011;42208;6.376;-10.782;2023-07-20T03:41:22;15.45;;;4.95;;
56297;SDS011;42208;6.376;-10.782;2023-07-20T03:43:50;16.13;;;3.90;;
56297;SDS011;42208;6.376;-10.782;2023-07-20T03:46:19;10.88;;;4.18;;
56297;SDS011;42208;6.376;-10.782;2023-07-20T03:48:48;10.45;;;3.80;;
56297;SDS011;42208;6.376;-10.782;2023-07-20T03:51:16;12.57;;;4.82;;
56297;SDS011;42208;6.376;-10.782;2023-07-20T03:53:45;11.43;;;4.93;;
56297;SDS011;42208;6.376;-10.782;2023-07-20T03:56:13;7.95;;;4.32;;
56297;SDS011;42208;6.376;-10.782;2023-07-20T03:58:42;20.27;;;4.18;;
56297;SDS011;42208;6.376;-10.782;2023-07-20T04:01:10;11.25;;;4.03;;
56297;SDS011;42208;6.376;-10.782;2023-07-20T04:03:39;11.02;;;4.20;;
56297;SDS011;42208;6.376;-10.782;2023-07-20T04:06:07;14.15;;;4.72;;
56297;SDS011;42208;6.376;-10.782;2023-07-20T04:08:36;10.98;;;4.22;;
56297;SDS011;42208;6.376;-10.782;2023-07-20T04:11:05;12.77;;;4.78;;
56297;SDS011;42208;6.376;-10.782;2023-07-20T04:13:33;15.40;;;4.80;;
56297;SDS011;42208;6.376;-10.782;2023-07-20T04:16:01;10.18;;;4.50;;
56297;SDS011;42208;6.376;-10.782;2023-07-20T04:18:30;14.18;;;4.20;;
56297;SDS011;42208;6.376;-10.782;2023-07-20T04:20:58;16.88;;;5.35;;
56297;SDS011;42208;6.376;-10.782;2023-07-20T04:23:27;18.88;;;5.20;;
56297;SDS011;42208;6.376;-10.782;2023-07-20T04:25:56;13.65;;;6.10;;
56297;SDS011;42208;6.376;-10.782;2023-07-20T04:28:24;19.95;;;7.55;;
56297;SDS011;42208;6.376;-10.782;2023-07-20T04:30:53;23.58;;;9.63;;
56297;SDS011;42208;6.376;-10.782;2023-07-20T04:33:21;15.30;;;5.47;;
56297;SDS011;42208;6.376;-10.782;2023-07-20T04:38:29;14.32;;;4.97;;
56297;SDS011;42208;6.376;-10.782;2023-07-20T04:41:18;14.70;;;4.97;;
56297;SDS011;42208;6.376;-10.782;2023-07-20T04:43:48;17.58;;;5.82;;
56297;SDS011;42208;6.376;-10.782;2023-07-20T04:46:27;17.10;;;6.10;;
56297;SDS011;42208;6.376;-10.782;2023-07-20T04:48:57;17.33;;;6.32;;
56297;SDS011;42208;6.376;-10.782;2023-07-20T04:51:28;28.40;;;6.53;;
56297;SDS011;42208;6.376;-10.782;2023-07-20T04:53:58;18.50;;;6.53;;
56297;SDS011;42208;6.376;-10.782;2023-07-20T04:56:31;18.55;;;5.30;;
56297;SDS011;42208;6.376;-10.782;2023-07-20T04:59:00;24.92;;;6.95;;
56297;SDS011;42208;6.376;-10.782;2023-07-20T05:01:28;15.70;;;6.90;;
56297;SDS011;42208;6.376;-10.782;2023-07-20T05:03:57;16.33;;;7.90;;
56297;SDS011;42208;6.376;-10.782;2023-07-20T05:06:26;24.13;;;6.72;;
56297;SDS011;42208;6.376;-10.782;2023-07-20T05:08:54;23.58;;;7.60;;
56297;SDS011;42208;6.376;-10.782;2023-07-20T05:11:23;21.08;;;6.97;;
56297;SDS011;42208;6.376;-10.782;2023-07-20T05:13:51;22.35;;;7.10;;
56297;SDS011;42208;6.376;-10.782;2023-07-20T05:16:20;20.83;;;7.45;;
56297;SDS011;42208;6.376;-10.782;2023-07-20T05:18:49;18.42;;;7.72;;
56297;SDS011;42208;6.376;-10.782;2023-07-20T05:21:19;23.63;;;7.53;;
56297;SDS011;42208;6.376;-10.782;2023-07-20T05:23:47;18.25;;;7.45;;
56297;SDS011;42208;6.376;-10.782;2023-07-20T05:26:15;25.08;;;8.20;;
56297;SDS011;42208;6.376;-10.782;2023-07-20T05:28:44;25.45;;;7.80;;
56297;SDS011;42208;6.376;-10.782;2023-07-20T05:31:12;20.65;;;6.97;;
56297;SDS011;42208;6.376;-10.782;2023-07-20T05:33:41;25.98;;;8.85;;
56297;SDS011;42208;6.376;-10.782;2023-07-20T05:36:25;37.08;;;8.82;;
56297;SDS011;42208;6.376;-10.782;2023-07-20T05:38:54;26.88;;;8.32;;
56297;SDS011;42208;6.376;-10.782;2023-07-20T05:41:22;27.23;;;8.32;;
56297;SDS011;42208;6.376;-10.782;2023-07-20T05:43:51;24.95;;;7.82;;
56297;SDS011;42208;6.376;-10.782;2023-07-20T05:46:19;21.92;;;7.00;;
56297;SDS011;42208;6.376;-10.782;2023-07-20T05:48:48;25.95;;;8.02;;
56297;SDS011;42208;6.376;-10.782;2023-07-20T05:51:17;23.38;;;8.00;;
56297;SDS011;42208;6.376;-10.782;2023-07-20T05:53:45;26.23;;;8.32;;
56297;SDS011;42208;6.376;-10.782;2023-07-20T05:56:14;22.70;;;8.93;;
56297;SDS011;42208;6.376;-10.782;2023-07-20T05:58:42;28.50;;;10.70;;
56297;SDS011;42208;6.376;-10.782;2023-07-20T06:01:11;29.40;;;10.63;;
56297;SDS011;42208;6.376;-10.782;2023-07-20T06:03:39;26.73;;;10.63;;
56297;SDS011;42208;6.376;-10.782;2023-07-20T06:06:08;30.23;;;12.05;;
56297;SDS011;42208;6.376;-10.782;2023-07-20T06:08:36;26.98;;;10.63;;
56297;SDS011;42208;6.376;-10.782;2023-07-20T06:11:05;32.88;;;11.18;;
56297;SDS011;42208;6.376;-10.782;2023-07-20T06:13:34;28.13;;;11.63;;
56297;SDS011;42208;6.376;-10.782;2023-07-20T06:16:02;27.80;;;12.43;;
56297;SDS011;42208;6.376;-10.782;2023-07-20T06:20:12;32.22;;;11.68;;
56297;SDS011;42208;6.376;-10.782;2023-07-20T06:22:41;38.88;;;12.95;;
56297;SDS011;42208;6.376;-10.782;2023-07-20T06:25:09;34.05;;;12.80;;
56297;SDS011;42208;6.376;-10.782;2023-07-20T06:27:38;32.10;;;13.40;;
56297;SDS011;42208;6.376;-10.782;2023-07-20T06:30:07;27.73;;;12.38;;
56297;SDS011;42208;6.376;-10.782;2023-07-20T06:32:35;29.95;;;10.50;;
56297;SDS011;42208;6.376;-10.782;2023-07-20T06:35:04;30.77;;;11.02;;
56297;SDS011;42208;6.376;-10.782;2023-07-20T06:37:33;30.58;;;11.80;;
56297;SDS011;42208;6.376;-10.782;2023-07-20T06:40:02;36.55;;;11.27;;
56297;SDS011;42208;6.376;-10.782;2023-07-20T06:42:34;32.42;;;10.77;;
56297;SDS011;42208;6.376;-10.782;2023-07-20T06:45:05;27.05;;;9.30;;
56297;SDS011;42208;6.376;-10.782;2023-07-20T06:47:34;34.03;;;11.27;;
56297;SDS011;42208;6.376;-10.782;2023-07-20T06:50:03;28.88;;;10.13;;
56297;SDS011;42208;6.376;-10.782;2023-07-20T06:52:31;28.33;;;9.93;;
56297;SDS011;42208;6.376;-10.782;2023-07-20T06:55:00;24.10;;;9.15;;
56297;SDS011;42208;6.376;-10.782;2023-07-20T06:57:32;25.52;;;9.60;;
56297;SDS011;42208;6.376;-10.782;2023-07-20T07:00:00;26.88;;;9.38;;
56297;SDS011;42208;6.376;-10.782;2023-07-20T07:02:28;23.77;;;9.93;;
56297;SDS011;42208;6.376;-10.782;2023-07-20T07:04:57;25.92;;;9.13;;
56297;SDS011;42208;6.376;-10.782;2023-07-20T07:07:45;34.88;;;11.18;;
56297;SDS011;42208;6.376;-10.782;2023-07-20T07:10:13;33.47;;;12.07;;
56297;SDS011;42208;6.376;-10.782;2023-07-20T07:12:41;21.55;;;10.45;;
56297;SDS011;42208;6.376;-10.782;2023-07-20T07:15:10;24.40;;;8.00;;
56297;SDS011;42208;6.376;-10.782;2023-07-20T07:17:38;23.38;;;8.55;;
56297;SDS011;42208;6.376;-10.782;2023-07-20T07:20:07;19.23;;;8.80;;
56297;SDS011;42208;6.376;-10.782;2023-07-20T07:22:46;24.23;;;10.73;;
56297;SDS011;42208;6.376;-10.782;2023-07-20T07:25:20;27.08;;;10.30;;
56297;SDS011;42208;6.376;-10.782;2023-07-20T07:27:50;26.70;;;11.10;;
56297;SDS011;42208;6.376;-10.782;2023-07-20T07:30:19;31.60;;;11.30;;
56297;SDS011;42208;6.376;-10.782;2023-07-20T07:32:47;32.50;;;8.98;;
56297;SDS011;42208;6.376;-10.782;2023-07-20T07:35:16;23.98;;;8.85;;
56297;SDS011;42208;6.376;-10.782;2023-07-20T07:37:45;28.92;;;9.02;;
56297;SDS011;42208;6.376;-10.782;2023-07-20T07:40:30;27.70;;;8.57;;
56297;SDS011;42208;6.376;-10.782;2023-07-20T07:42:58;17.88;;;7.47;;
56297;SDS011;42208;6.376;-10.782;2023-07-20T07:45:27;27.17;;;8.30;;
56297;SDS011;42208;6.376;-10.782;2023-07-20T07:47:55;23.60;;;8.05;;
56297;SDS011;42208;6.376;-10.782;2023-07-20T07:50:24;25.25;;;7.13;;
56297;SDS011;42208;6.376;-10.782;2023-07-20T07:52:52;21.98;;;8.32;;
56297;SDS011;42208;6.376;-10.782;2023-07-20T07:55:21;23.67;;;8.00;;
56297;SDS011;42208;6.376;-10.782;2023-07-20T07:57:49;24.88;;;7.35;;
56297;SDS011;42208;6.376;-10.782;2023-07-20T08:00:18;32.67;;;13.40;;
56297;SDS011;42208;6.376;-10.782;2023-07-20T08:02:46;35.28;;;17.27;;
56297;SDS011;42208;6.376;-10.782;2023-07-20T08:05:15;24.65;;;11.82;;
56297;SDS011;42208;6.376;-10.782;2023-07-20T08:07:44;15.55;;;6.75;;
56297;SDS011;42208;6.376;-10.782;2023-07-20T08:10:12;16.88;;;7.38;;
56297;SDS011;42208;6.376;-10.782;2023-07-20T08:12:41;18.35;;;7.80;;
56297;SDS011;42208;6.376;-10.782;2023-07-20T08:15:10;15.43;;;7.35;;
56297;SDS011;42208;6.376;-10.782;2023-07-20T08:17:40;19.40;;;6.70;;
56297;SDS011;42208;6.376;-10.782;2023-07-20T08:20:10;17.48;;;8.43;;
56297;SDS011;42208;6.376;-10.782;2023-07-20T08:22:41;36.20;;;10.55;;
56297;SDS011;42208;6.376;-10.782;2023-07-20T08:25:13;30.38;;;11.27;;
56297;SDS011;42208;6.376;-10.782;2023-07-20T08:27:41;32.08;;;10.52;;
56297;SDS011;42208;6.376;-10.782;2023-07-20T08:30:11;29.63;;;10.15;;
56297;SDS011;42208;6.376;-10.782;2023-07-20T08:32:40;30.27;;;10.63;;
56297;SDS011;42208;6.376;-10.782;2023-07-20T08:35:09;30.15;;;9.93;;
56297;SDS011;42208;6.376;-10.782;2023-07-20T08:37:42;37.05;;;12.02;;
56297;SDS011;42208;6.376;-10.782;2023-07-20T08:40:10;31.25;;;10.50;;
56297;SDS011;42208;6.376;-10.782;2023-07-20T08:42:41;28.33;;;10.80;;
56297;SDS011;42208;6.376;-10.782;2023-07-20T08:45:11;29.40;;;10.68;;
56297;SDS011;42208;6.376;-10.782;2023-07-20T08:47:41;34.58;;;11.25;;
56297;SDS011;42208;6.376;-10.782;2023-07-20T08:50:10;41.05;;;12.35;;
56297;SDS011;42208;6.376;-10.782;2023-07-20T08:52:40;35.13;;;11.30;;
56297;SDS011;42208;6.376;-10.782;2023-07-20T08:55:11;37.67;;;11.95;;
56297;SDS011;42208;6.376;-10.782;2023-07-20T08:57:41;30.90;;;11.35;;
56297;SDS011;42208;6.376;-10.782;2023-07-20T09:00:12;49.03;;;12.50;;
56297;SDS011;42208;6.376;-10.782;2023-07-20T09:02:42;32.72;;;12.20;;
56297;SDS011;42208;6.376;-10.782;2023-07-20T09:07:43;42.03;;;10.13;;
56297;SDS011;42208;6.376;-10.782;2023-07-20T09:12:43;30.92;;;8.98;;
56297;SDS011;42208;6.376;-10.782;2023-07-20T09:15:12;21.60;;;8.77;;
56297;SDS011;42208;6.376;-10.782;2023-07-20T09:17:45;32.70;;;10.27;;
56297;SDS011;42208;6.376;-10.782;2023-07-20T09:20:17;40.13;;;11.25;;
56297;SDS011;42208;6.376;-10.782;2023-07-20T09:22:50;40.17;;;11.48;;
56297;SDS011;42208;6.376;-10.782;2023-07-20T09:25:19;38.35;;;11.18;;
56297;SDS011;42208;6.376;-10.782;2023-07-20T09:27:49;31.48;;;10.38;;
56297;SDS011;42208;6.376;-10.782;2023-07-20T09:30:18;43.47;;;12.13;;
56297;SDS011;42208;6.376;-10.782;2023-07-20T09:32:58;40.58;;;11.25;;
56297;SDS011;42208;6.376;-10.782;2023-07-20T09:35:28;36.05;;;10.55;;
56297;SDS011;42208;6.376;-10.782;2023-07-20T09:38:09;25.55;;;10.15;;
56297;SDS011;42208;6.376;-10.782;2023-07-20T09:40:41;28.55;;;8.93;;
56297;SDS011;42208;6.376;-10.782;2023-07-20T09:45:52;41.05;;;11.65;;
56297;SDS011;42208;6.376;-10.782;2023-07-20T09:48:27;34.22;;;11.77;;
56297;SDS011;42208;6.376;-10.782;2023-07-20T09:51:00;33.60;;;11.23;;
56297;SDS011;42208;6.376;-10.782;2023-07-20T09:53:29;41.33;;;9.95;;
56297;SDS011;42208;6.376;-10.782;2023-07-20T09:56:00;33.78;;;11.13;;
56297;SDS011;42208;6.376;-10.782;2023-07-20T09:58:30;29.92;;;9.65;;
56297;SDS011;42208;6.376;-10.782;2023-07-20T10:01:00;40.53;;;12.30;;
56297;SDS011;42208;6.376;-10.782;2023-07-20T10:03:34;28.92;;;8.65;;
56297;SDS011;42208;6.376;-10.782;2023-07-20T10:08:38;28.73;;;8.35;;
56297;SDS011;42208;6.376;-10.782;2023-07-20T10:11:11;23.30;;;8.30;;
56297;SDS011;42208;6.376;-10.782;2023-07-20T10:13:43;21.73;;;8.98;;
56297;SDS011;42208;6.376;-10.782;2023-07-20T10:16:31;19.70;;;8.27;;
56297;SDS011;42208;6.376;-10.782;2023-07-20T10:22:30;31.67;;;8.55;;
56297;SDS011;42208;6.376;-10.782;2023-07-20T10:25:08;32.88;;;9.73;;
56297;SDS011;42208;6.376;-10.782;2023-07-20T10:27:37;30.95;;;10.23;;
56297;SDS011;42208;6.376;-10.782;2023-07-20T10:30:07;32.63;;;9.32;;
56297;SDS011;42208;6.376;-10.782;2023-07-20T10:32:36;23.90;;;8.60;;
56297;SDS011;42208;6.376;-10.782;2023-07-20T10:35:16;37.15;;;10.63;;
56297;SDS011;42208;6.376;-10.782;2023-07-20T10:43:01;31.08;;;10.52;;
56297;SDS011;42208;6.376;-10.782;2023-07-20T10:45:40;30.85;;;9.00;;
56297;SDS011;42208;6.376;-10.782;2023-07-20T10:48:20;24.65;;;9.00;;
56297;SDS011;42208;6.376;-10.782;2023-07-20T10:53:40;27.25;;;9.13;;
56297;SDS011;42208;6.376;-10.782;2023-07-20T10:56:12;31.20;;;10.13;;
56297;SDS011;42208;6.376;-10.782;2023-07-20T10:58:42;29.23;;;9.30;;
56297;SDS011;42208;6.376;-10.782;2023-07-20T11:01:13;30.92;;;11.30;;
56297;SDS011;42208;6.376;-10.782;2023-07-20T11:03:49;33.70;;;9.98;;
56297;SDS011;42208;6.376;-10.782;2023-07-20T11:09:04;29.40;;;10.43;;
56297;SDS011;42208;6.376;-10.782;2023-07-20T11:11:36;30.33;;;10.07;;
56297;SDS011;42208;6.376;-10.782;2023-07-20T11:14:07;23.55;;;10.43;;
56297;SDS011;42208;6.376;-10.782;2023-07-20T11:16:44;26.48;;;10.60;;
56297;SDS011;42208;6.376;-10.782;2023-07-20T11:19:25;34.05;;;10.68;;
56297;SDS011;42208;6.376;-10.782;2023-07-20T11:21:57;25.58;;;10.40;;
56297;SDS011;42208;6.376;-10.782;2023-07-20T11:24:30;31.65;;;10.32;;
56297;SDS011;42208;6.376;-10.782;2023-07-20T11:27:00;38.78;;;12.18;;
56297;SDS011;42208;6.376;-10.782;2023-07-20T11:29:29;33.78;;;12.00;;
56297;SDS011;42208;6.376;-10.782;2023-07-20T11:32:03;33.50;;;11.50;;
56297;SDS011;42208;6.376;-10.782;2023-07-20T11:34:33;33.03;;;11.20;;
56297;SDS011;42208;6.376;-10.782;2023-07-20T11:37:02;27.10;;;10.75;;
56297;SDS011;42208;6.376;-10.782;2023-07-20T11:39:36;30.48;;;11.10;;
56297;SDS011;42208;6.376;-10.782;2023-07-20T11:42:05;34.90;;;12.13;;
56297;SDS011;42208;6.376;-10.782;2023-07-20T11:44:34;39.38;;;11.88;;
56297;SDS011;42208;6.376;-10.782;2023-07-20T11:47:03;37.75;;;11.57;;
56297;SDS011;42208;6.376;-10.782;2023-07-20T11:49:36;26.85;;;10.93;;
56297;SDS011;42208;6.376;-10.782;2023-07-20T11:52:12;29.33;;;9.98;;
56297;SDS011;42208;6.376;-10.782;2023-07-20T11:54:42;29.23;;;10.93;;
56297;SDS011;42208;6.376;-10.782;2023-07-20T11:57:18;35.15;;;10.43;;
56297;SDS011;42208;6.376;-10.782;2023-07-20T11:59:54;28.65;;;10.88;;
56297;SDS011;42208;6.376;-10.782;2023-07-20T12:02:26;29.42;;;11.02;;
56297;SDS011;42208;6.376;-10.782;2023-07-20T12:04:56;30.48;;;9.50;;
56297;SDS011;42208;6.376;-10.782;2023-07-20T12:07:27;36.38;;;10.10;;
56297;SDS011;42208;6.376;-10.782;2023-07-20T12:10:03;28.55;;;10.75;;
56297;SDS011;42208;6.376;-10.782;2023-07-20T12:12:33;27.15;;;11.38;;
56297;SDS011;42208;6.376;-10.782;2023-07-20T12:15:26;28.77;;;12.35;;
56297;SDS011;42208;6.376;-10.782;2023-07-20T12:17:58;24.40;;;9.68;;
56297;SDS011;42208;6.376;-10.782;2023-07-20T12:20:29;25.33;;;9.63;;
56297;SDS011;42208;6.376;-10.782;2023-07-20T12:23:00;33.00;;;10.18;;
56297;SDS011;42208;6.376;-10.782;2023-07-20T12:25:37;34.00;;;10.43;;
56297;SDS011;42208;6.376;-10.782;2023-07-20T12:28:08;28.52;;;8.95;;
56297;SDS011;42208;6.376;-10.782;2023-07-20T12:30:38;25.55;;;10.93;;
56297;SDS011;42208;6.376;-10.782;2023-07-20T12:33:08;29.65;;;9.65;;
56297;SDS011;42208;6.376;-10.782;2023-07-20T12:35:36;26.73;;;8.45;;
56297;SDS011;42208;6.376;-10.782;2023-07-20T12:38:05;25.85;;;7.53;;
56297;SDS011;42208;6.376;-10.782;2023-07-20T12:40:34;31.85;;;12.25;;
56297;SDS011;42208;6.376;-10.782;2023-07-20T12:43:02;32.97;;;15.43;;
56297;SDS011;42208;6.376;-10.782;2023-07-20T12:45:41;31.67;;;11.15;;
56297;SDS011;42208;6.376;-10.782;2023-07-20T12:48:10;41.53;;;14.32;;
56297;SDS011;42208;6.376;-10.782;2023-07-20T12:50:40;27.23;;;9.25;;
56297;SDS011;42208;6.376;-10.782;2023-07-20T12:53:08;19.98;;;8.73;;
56297;SDS011;42208;6.376;-10.782;2023-07-20T12:55:39;15.80;;;5.10;;
56297;SDS011;42208;6.376;-10.782;2023-07-20T12:58:08;5.38;;;3.15;;
56297;SDS011;42208;6.376;-10.782;2023-07-20T13:00:37;11.95;;;6.63;;
56297;SDS011;42208;6.376;-10.782;2023-07-20T13:03:06;39.40;;;21.80;;
56297;SDS011;42208;6.376;-10.782;2023-07-20T13:05:36;37.17;;;19.50;;
56297;SDS011;42208;6.376;-10.782;2023-07-20T13:08:07;19.87;;;11.90;;
56297;SDS011;42208;6.376;-10.782;2023-07-20T13:10:40;23.35;;;12.88;;
56297;SDS011;42208;6.376;-10.782;2023-07-20T13:13:11;24.23;;;12.55;;
56297;SDS011;42208;6.376;-10.782;2023-07-20T13:15:44;23.67;;;13.25;;
56297;SDS011;42208;6.376;-10.782;2023-07-20T13:18:13;23.15;;;13.27;;
56297;SDS011;42208;6.376;-10.782;2023-07-20T13:20:42;11.55;;;5.55;;
56297;SDS011;42208;6.376;-10.782;2023-07-20T13:23:11;11.85;;;4.80;;
56297;SDS011;42208;6.376;-10.782;2023-07-20T13:25:39;7.50;;;4.40;;
56297;SDS011;42208;6.376;-10.782;2023-07-20T13:28:08;5.20;;;3.22;;
56297;SDS011;42208;6.376;-10.782;2023-07-20T13:30:37;10.93;;;5.47;;
56297;SDS011;42208;6.376;-10.782;2023-07-20T13:33:07;13.50;;;8.45;;
56297;SDS011;42208;6.376;-10.782;2023-07-20T13:38:27;8.35;;;3.42;;
56297;SDS011;42208;6.376;-10.782;2023-07-20T13:40:56;13.40;;;5.78;;
56297;SDS011;42208;6.376;-10.782;2023-07-20T13:43:25;7.43;;;2.75;;
56297;SDS011;42208;6.376;-10.782;2023-07-20T13:45:54;10.10;;;5.22;;
56297;SDS011;42208;6.376;-10.782;2023-07-20T13:48:23;14.65;;;9.10;;
56297;SDS011;42208;6.376;-10.782;2023-07-20T13:50:54;22.02;;;12.50;;
56297;SDS011;42208;6.376;-10.782;2023-07-20T13:53:27;16.35;;;10.82;;
56297;SDS011;42208;6.376;-10.782;2023-07-20T13:55:58;27.33;;;20.07;;
56297;SDS011;42208;6.376;-10.782;2023-07-20T13:58:32;9.73;;;4.25;;
56297;SDS011;42208;6.376;-10.782;2023-07-20T14:01:00;8.07;;;3.22;;
56297;SDS011;42208;6.376;-10.782;2023-07-20T14:03:29;3.90;;;3.28;;
56297;SDS011;42208;6.376;-10.782;2023-07-20T14:05:58;4.50;;;2.95;;
56297;SDS011;42208;6.376;-10.782;2023-07-20T14:08:29;8.60;;;7.67;;
56297;SDS011;42208;6.376;-10.782;2023-07-20T14:10:57;7.78;;;3.78;;
56297;SDS011;42208;6.376;-10.782;2023-07-20T14:13:29;6.72;;;3.15;;
56297;SDS011;42208;6.376;-10.782;2023-07-20T14:16:12;5.93;;;4.32;;
56297;SDS011;42208;6.376;-10.782;2023-07-20T14:18:41;4.97;;;2.70;;
56297;SDS011;42208;6.376;-10.782;2023-07-20T14:21:10;4.45;;;2.83;;
56297;SDS011;42208;6.376;-10.782;2023-07-20T14:23:38;6.38;;;3.05;;
56297;SDS011;42208;6.376;-10.782;2023-07-20T14:26:08;7.35;;;5.15;;
56297;SDS011;42208;6.376;-10.782;2023-07-20T14:28:43;12.75;;;7.15;;
56297;SDS011;42208;6.376;-10.782;2023-07-20T14:31:12;47.97;;;41.10;;
56297;SDS011;42208;6.376;-10.782;2023-07-20T14:33:40;33.40;;;29.80;;
56297;SDS011;42208;6.376;-10.782;2023-07-20T14:36:09;52.40;;;46.47;;
56297;SDS011;42208;6.376;-10.782;2023-07-20T14:38:37;46.10;;;34.55;;
56297;SDS011;42208;6.376;-10.782;2023-07-20T14:41:07;58.33;;;48.25;;
56297;SDS011;42208;6.376;-10.782;2023-07-20T14:43:35;18.88;;;15.40;;
56297;SDS011;42208;6.376;-10.782;2023-07-20T14:46:03;12.13;;;6.28;;
56297;SDS011;42208;6.376;-10.782;2023-07-20T14:48:33;9.82;;;6.32;;
56297;SDS011;42208;6.376;-10.782;2023-07-20T14:51:01;8.70;;;5.43;;
56297;SDS011;42208;6.376;-10.782;2023-07-20T14:53:32;6.22;;;4.72;;
56297;SDS011;42208;6.376;-10.782;2023-07-20T14:56:03;7.85;;;4.85;;
56297;SDS011;42208;6.376;-10.782;2023-07-20T14:58:31;6.28;;;3.47;;
56297;SDS011;42208;6.376;-10.782;2023-07-20T15:01:02;6.13;;;3.60;;
56297;SDS011;42208;6.376;-10.782;2023-07-20T15:03:31;5.82;;;3.15;;
56297;SDS011;42208;6.376;-10.782;2023-07-20T15:06:00;9.27;;;4.07;;
56297;SDS011;42208;6.376;-10.782;2023-07-20T15:08:29;5.22;;;3.17;;
56297;SDS011;42208;6.376;-10.782;2023-07-20T15:10:59;4.53;;;3.15;;
56297;SDS011;42208;6.376;-10.782;2023-07-20T15:13:28;4.22;;;2.17;;